Time;durP1;ratioP1;P1;durP2;ratioP2;P2;SDS_P1;SDS_P2;PMS_P1;PMS_P2;Temp;Humidity;BMP_temperature;BMP_pressure;BME280_temperature;BME280_humidity;BME280_pressure;Samples;Min_cycle;Max_cycle;Signal;HPM_P1;HPM_P2
2021/05/08 00:00:17;;;;;;;4.13;3.07;;;;;;;2.24;100.00;100926.81;5016154;28;20053;-82
2021/05/08 00:02:46;;;;;;;3.27;2.60;;;;;;;2.15;100.00;100926.66;4990565;28;20037;-82
2021/05/08 00:05:13;;;;;;;3.73;2.50;;;;;;;2.12;100.00;100931.81;5006800;28;20037;-83
2021/05/08 00:07:39;;;;;;;3.83;2.87;;;;;;;2.11;100.00;100943.09;5011337;28;20859;-84
2021/05/08 00:10:15;;;;;;;5.27;3.20;;;;;;;2.02;100.00;100937.72;5019164;28;20045;-82
2021/05/08 00:12:42;;;;;;;6.30;3.40;;;;;;;1.94;100.00;100939.31;5003142;28;20059;-82
2021/05/08 00:15:10;;;;;;;4.30;2.70;;;;;;;1.89;100.00;100941.81;5019768;28;20052;-82
2021/05/08 00:17:37;;;;;;;4.70;2.63;;;;;;;1.85;100.00;100945.22;5000940;28;20049;-85
2021/05/08 00:20:08;;;;;;;4.30;2.70;;;;;;;1.87;100.00;100942.63;5015510;28;20045;-81
2021/05/08 00:22:35;;;;;;;5.23;2.80;;;;;;;1.92;100.00;100936.66;5018720;28;20533;-83
2021/05/08 00:25:01;;;;;;;8.80;3.20;;;;;;;1.89;100.00;100943.53;5029318;28;20053;-83
2021/05/08 00:27:27;;;;;;;3.57;2.63;;;;;;;1.79;100.00;100941.59;5012739;28;20383;-84
2021/05/08 00:29:53;;;;;;;4.53;2.70;;;;;;;1.77;100.00;100940.72;5019897;28;20060;-83
2021/05/08 00:32:19;;;;;;;3.20;2.60;;;;;;;1.72;100.00;100943.22;5022238;28;20036;-84
2021/05/08 00:34:46;;;;;;;3.43;2.50;;;;;;;1.66;100.00;100945.69;4994571;28;20106;-83
2021/05/08 00:37:12;;;;;;;4.27;2.80;;;;;;;1.63;100.00;100948.25;4995520;28;20060;-84
2021/05/08 00:39:39;;;;;;;4.13;2.73;;;;;;;1.66;100.00;100946.56;5025956;28;20033;-83
2021/05/08 00:42:05;;;;;;;3.03;2.20;;;;;;;1.66;100.00;100946.56;4990390;28;20045;-83
2021/05/08 00:44:31;;;;;;;3.80;2.50;;;;;;;1.61;100.00;100950.81;5020721;28;20071;-82
2021/05/08 00:46:57;;;;;;;7.97;3.20;;;;;;;1.64;100.00;100950.00;5037592;28;20049;-84
2021/05/08 00:49:27;;;;;;;4.70;2.80;;;;;;;1.59;100.00;100944.66;5016384;28;21687;-83
2021/05/08 00:51:54;;;;;;;4.70;2.57;;;;;;;1.59;100.00;100941.19;5015498;28;20053;-83
2021/05/08 00:54:20;;;;;;;4.37;2.50;;;;;;;1.59;100.00;100954.22;5005286;28;20473;-83
2021/05/08 00:56:47;;;;;;;5.13;3.70;;;;;;;1.57;100.00;100941.16;5020585;28;20041;-83
2021/05/08 00:59:14;;;;;;;4.30;2.67;;;;;;;1.55;100.00;100949.81;5020526;28;20053;-84
2021/05/08 01:01:43;;;;;;;4.00;2.90;;;;;;;1.54;100.00;100954.13;5004973;28;20108;-84
2021/05/08 01:04:09;;;;;;;4.93;2.83;;;;;;;1.57;100.00;100945.50;5028208;28;20502;-82
2021/05/08 01:06:38;;;;;;;11.00;4.23;;;;;;;1.68;100.00;100949.19;5015154;28;20110;-82
2021/05/08 01:09:05;;;;;;;6.17;2.97;;;;;;;1.74;100.00;100944.09;5020837;28;20521;-83
2021/05/08 01:11:31;;;;;;;4.73;2.93;;;;;;;1.69;100.00;100949.25;5004658;28;20613;-82
2021/05/08 01:13:58;;;;;;;4.90;2.87;;;;;;;1.64;100.00;100950.88;5020788;28;20048;-83
2021/05/08 01:16:24;;;;;;;4.57;2.77;;;;;;;1.61;100.00;100943.00;5020183;28;20135;-82
2021/05/08 01:18:53;;;;;;;4.07;3.30;;;;;;;1.65;100.00;100946.53;5017895;28;20041;-82
2021/05/08 01:21:20;;;;;;;4.87;3.20;;;;;;;1.72;100.00;100943.22;5028307;28;20064;-82
2021/05/08 01:23:47;;;;;;;5.83;3.70;;;;;;;1.66;100.00;100943.06;5036020;28;20202;-83
2021/05/08 01:26:14;;;;;;;7.47;3.33;;;;;;;1.63;100.00;100943.91;5017857;28;20045;-83
2021/05/08 01:28:41;;;;;;;3.93;2.90;;;;;;;1.56;100.00;100946.34;5021367;28;20579;-82
2021/05/08 01:31:08;;;;;;;4.47;2.87;;;;;;;1.58;100.00;100955.06;5019235;28;20037;-83
2021/05/08 01:33:35;;;;;;;4.70;2.60;;;;;;;1.54;100.00;100951.53;5015861;28;20056;-84
2021/05/08 01:36:01;;;;;;;5.87;2.70;;;;;;;1.50;100.00;100951.41;5013155;28;20041;-84
2021/05/08 01:38:28;;;;;;;5.00;2.60;;;;;;;1.48;100.00;100954.00;4986670;28;20042;-82
2021/05/08 01:41:02;;;;;;;4.23;2.87;;;;;;;1.42;100.00;100949.53;5023481;28;20474;-82
2021/05/08 01:43:29;;;;;;;5.63;3.53;;;;;;;1.46;100.00;100966.13;5054741;23;20041;-83
2021/05/08 01:45:55;;;;;;;4.23;3.17;;;;;;;1.39;100.00;100956.41;5004855;28;20059;-83
2021/05/08 01:48:22;;;;;;;6.40;3.20;;;;;;;1.40;100.00;100961.63;4997821;28;20092;-81
2021/05/08 01:50:49;;;;;;;6.23;4.13;;;;;;;1.41;100.00;100963.41;4997091;28;20048;-82
2021/05/08 01:53:15;;;;;;;5.30;2.80;;;;;;;1.32;100.00;100955.41;5030777;28;20056;-81
2021/05/08 01:55:42;;;;;;;5.17;2.60;;;;;;;1.36;100.00;100961.56;5018828;28;20047;-81
2021/05/08 01:58:08;;;;;;;4.40;3.13;;;;;;;1.33;100.00;100961.47;5017912;28;20053;-81
2021/05/08 02:00:42;;;;;;;6.13;2.97;;;;;;;1.25;100.00;100971.72;5017061;28;20049;-82
2021/05/08 02:03:10;;;;;;;7.03;3.37;;;;;;;1.31;100.00;100965.78;5002694;28;20045;-81
2021/05/08 02:05:38;;;;;;;6.07;3.30;;;;;;;1.30;100.00;100961.41;5034060;28;20041;-81
2021/05/08 02:08:06;;;;;;;4.37;2.80;;;;;;;1.31;100.00;100960.56;5000440;28;20044;-82
2021/05/08 02:10:37;;;;;;;9.37;3.67;;;;;;;1.30;100.00;100970.09;5027752;28;20037;-83
2021/05/08 02:13:04;;;;;;;6.27;3.20;;;;;;;1.25;100.00;100960.44;5023675;28;20037;-82
2021/05/08 02:15:31;;;;;;;4.03;2.77;;;;;;;1.23;100.00;100964.72;4999716;28;20505;-83
2021/05/08 02:17:57;;;;;;;3.87;3.23;;;;;;;1.17;100.00;100960.25;5002248;28;20045;-82
2021/05/08 02:20:26;;;;;;;6.63;3.00;;;;;;;1.12;100.00;100970.56;5031939;28;20049;-81
2021/05/08 02:23:04;;;;;;;5.33;2.97;;;;;;;1.18;100.00;100974.16;5016397;28;20088;-80
2021/05/08 02:25:30;;;;;;;4.40;2.53;;;;;;;1.13;100.00;100976.66;5017155;28;20648;-83
2021/05/08 02:27:57;;;;;;;4.90;3.20;;;;;;;1.12;100.00;100973.19;5013810;28;20083;-81
2021/05/08 02:30:25;;;;;;;4.07;2.53;;;;;;;1.09;100.00;100980.03;5012715;28;20053;-80
2021/05/08 02:32:52;;;;;;;4.67;2.87;;;;;;;1.13;100.00;100971.44;4996956;28;20041;-80
2021/05/08 02:35:19;;;;;;;4.00;3.17;;;;;;;1.14;100.00;100973.22;5011488;28;20041;-81
2021/05/08 02:37:45;;;;;;;4.83;3.13;;;;;;;1.08;100.00;100970.47;5016066;28;20041;-81
2021/05/08 02:40:14;;;;;;;4.73;2.90;;;;;;;1.05;100.00;100966.06;5014481;28;20029;-81
2021/05/08 02:42:41;;;;;;;5.43;3.87;;;;;;;1.05;100.00;100970.41;5033092;28;20052;-81
2021/05/08 02:45:09;;;;;;;3.53;2.87;;;;;;;1.08;100.00;100973.06;5032451;28;20041;-81
2021/05/08 02:47:36;;;;;;;5.27;2.93;;;;;;;0.99;100.00;100978.94;5016649;28;20045;-83
2021/05/08 02:50:03;;;;;;;3.87;2.63;;;;;;;0.98;100.00;100981.50;4998934;28;20284;-80
2021/05/08 02:52:29;;;;;;;5.43;3.27;;;;;;;0.96;100.00;100978.00;5049249;28;20163;-82
2021/05/08 02:54:56;;;;;;;5.77;2.87;;;;;;;0.91;100.00;100985.69;5033104;28;20092;-81
2021/05/08 02:57:22;;;;;;;4.20;2.83;;;;;;;0.89;100.00;100992.56;4993317;28;20041;-81
2021/05/08 02:59:49;;;;;;;4.57;3.07;;;;;;;0.91;100.00;100990.00;5006970;28;20124;-83
2021/05/08 03:02:15;;;;;;;4.27;2.43;;;;;;;0.94;100.00;100988.38;5030990;28;20930;-81
2021/05/08 03:04:41;;;;;;;4.93;3.20;;;;;;;0.95;100.00;100995.31;5016451;28;20049;-82
2021/05/08 03:07:07;;;;;;;6.03;3.20;;;;;;;0.96;100.00;100998.81;4999589;28;20124;-81
2021/05/08 03:09:33;;;;;;;6.63;3.40;;;;;;;0.96;100.00;100997.09;5014796;28;20037;-81
2021/05/08 03:12:02;;;;;;;6.53;3.17;;;;;;;0.98;100.00;101002.31;5000065;28;20033;-83
2021/05/08 03:14:28;;;;;;;4.23;3.00;;;;;;;0.96;100.00;101001.41;5048678;28;20037;-81
2021/05/08 03:17:04;;;;;;;4.87;3.30;;;;;;;0.94;100.00;101006.59;4996971;28;20041;-81
2021/05/08 03:19:34;;;;;;;6.60;3.40;;;;;;;0.93;100.00;101014.34;5016024;28;20056;-82
2021/05/08 03:22:00;;;;;;;5.60;3.23;;;;;;;0.96;100.00;101010.09;5016920;28;20072;-82
2021/05/08 03:24:26;;;;;;;4.30;3.13;;;;;;;0.90;100.00;101017.75;5012836;28;20577;-83
2021/05/08 03:26:53;;;;;;;4.50;3.30;;;;;;;0.89;100.00;101007.31;5011833;28;20048;-81
2021/05/08 03:29:19;;;;;;;5.43;3.17;;;;;;;0.90;100.00;101009.06;5027531;28;20059;-81
2021/05/08 03:31:45;;;;;;;7.13;3.50;;;;;;;0.90;100.00;101014.25;5049689;28;20088;-81
2021/05/08 03:34:11;;;;;;;7.10;3.40;;;;;;;0.91;100.00;101008.22;5002327;28;20131;-81
2021/05/08 03:36:38;;;;;;;4.00;3.13;;;;;;;0.96;100.00;101017.00;5014648;28;20045;-81
2021/05/08 03:39:04;;;;;;;4.07;3.30;;;;;;;1.00;100.00;101019.72;5016745;28;20052;-81
2021/05/08 03:41:31;;;;;;;5.53;3.03;;;;;;;0.94;100.00;101017.00;5015856;28;20060;-83
2021/05/08 03:43:57;;;;;;;4.60;3.53;;;;;;;0.98;100.00;101024.00;5015378;28;20053;-81
2021/05/08 03:46:23;;;;;;;6.20;4.20;;;;;;;1.00;100.00;101022.31;5015834;28;20037;-81
2021/05/08 03:48:50;;;;;;;6.50;3.47;;;;;;;1.00;100.00;101022.31;5002702;28;20393;-81
2021/05/08 03:51:16;;;;;;;7.80;3.97;;;;;;;1.07;100.00;101023.34;5009143;28;20052;-81
2021/05/08 03:53:43;;;;;;;6.73;3.53;;;;;;;1.05;100.00;101025.03;4998669;28;20042;-82
2021/05/08 03:56:09;;;;;;;5.63;3.60;;;;;;;1.07;100.00;101032.03;5034206;28;20045;-83
2021/05/08 03:58:35;;;;;;;6.07;4.00;;;;;;;1.08;100.00;101031.19;5008521;28;20046;-81
2021/05/08 04:01:01;;;;;;;7.83;4.70;;;;;;;1.16;100.00;101033.09;5009990;28;20053;-82
2021/05/08 04:03:27;;;;;;;5.63;3.60;;;;;;;1.17;100.00;101040.94;5031679;28;20132;-82
2021/05/08 04:05:54;;;;;;;5.77;3.80;;;;;;;1.17;100.00;101034.84;5006368;28;20517;-81
2021/05/08 04:08:20;;;;;;;5.67;3.60;;;;;;;1.21;100.00;101042.78;5012370;28;20045;-83
2021/05/08 04:10:50;;;;;;;7.53;4.13;;;;;;;1.29;100.00;101042.97;5028291;28;20506;-83
2021/05/08 04:13:17;;;;;;;5.73;3.80;;;;;;;1.32;100.00;101043.00;4998607;28;20049;-82
2021/05/08 04:15:43;;;;;;;5.67;3.60;;;;;;;1.33;100.00;101050.84;4987789;28;20136;-83
2021/05/08 04:18:13;;;;;;;5.17;3.50;;;;;;;1.37;100.00;101049.22;4999860;28;20044;-83
2021/05/08 04:20:39;;;;;;;5.53;3.70;;;;;;;1.46;100.00;101051.16;5000220;28;20040;-83
2021/05/08 04:23:07;;;;;;;7.57;4.10;;;;;;;1.48;100.00;101050.34;5001539;28;20043;-84
2021/05/08 04:25:33;;;;;;;5.63;3.90;;;;;;;1.59;100.00;101056.66;5002224;28;20045;-81
2021/05/08 04:27:59;;;;;;;5.77;3.57;;;;;;;1.59;100.00;101061.84;5003216;28;20418;-79
2021/05/08 04:30:25;;;;;;;4.03;3.23;;;;;;;1.62;100.00;101053.25;5017306;28;20096;-80
2021/05/08 04:33:11;;;;;;;6.17;3.90;;;;;;;1.65;100.00;101054.19;5007469;28;20470;-80
2021/05/08 04:35:38;;;;;;;6.47;4.40;;;;;;;1.72;100.00;101055.22;5018609;28;20126;-80
2021/05/08 04:38:04;;;;;;;5.63;3.87;;;;;;;1.73;100.00;101056.97;5015587;28;20111;-80
2021/05/08 04:40:31;;;;;;;27.00;15.03;;;;;;;1.81;100.00;101055.41;5006222;28;20146;-81
2021/05/08 04:42:57;;;;;;;8.20;4.97;;;;;;;2.00;100.00;101059.25;5017073;28;20041;-81
2021/05/08 04:45:26;;;;;;;9.50;5.43;;;;;;;2.01;100.00;101063.63;4999343;28;20042;-82
2021/05/08 04:47:56;;;;;;;7.13;5.70;;;;;;;2.11;100.00;101065.59;5017773;28;20498;-81
2021/05/08 04:50:24;;;;;;;7.70;5.13;;;;;;;2.19;100.00;101063.16;5011713;28;20494;-82
2021/05/08 04:52:51;;;;;;;9.30;6.60;;;;;;;2.25;100.00;101060.63;5002921;28;20056;-79
2021/05/08 04:55:17;;;;;;;11.77;5.57;;;;;;;2.28;100.00;101058.13;5003114;28;20404;-81
2021/05/08 04:57:47;;;;;;;9.70;4.70;;;;;;;2.43;100.00;101058.38;5037679;28;20049;-81
2021/05/08 05:00:14;;;;;;;8.10;5.20;;;;;;;2.54;100.00;101069.91;5012283;28;20061;-80
2021/05/08 05:02:43;;;;;;;13.13;5.30;;;;;;;2.67;100.00;101072.72;5010326;28;20033;-79
2021/05/08 05:05:11;;;;;;;8.67;5.27;;;;;;;2.85;100.00;101075.66;5040563;28;20041;-81
2021/05/08 05:07:38;;;;;;;10.63;5.83;;;;;;;2.95;100.00;101072.38;5012740;28;20040;-81
2021/05/08 05:10:05;;;;;;;7.77;7.07;;;;;;;2.95;100.00;101079.34;5020407;28;20045;-82
2021/05/08 05:12:31;;;;;;;6.00;4.30;;;;;;;3.01;100.00;101088.13;5036460;28;20474;-83
2021/05/08 05:15:02;;;;;;;10.47;4.20;;;;;;;3.09;100.00;101088.25;5028781;28;20041;-83
2021/05/08 05:17:30;;;;;;;8.13;4.13;;;;;;;3.04;100.00;101088.19;5014969;28;20488;-83
2021/05/08 05:19:58;;;;;;;8.37;4.17;;;;;;;3.11;100.00;101089.16;5056275;28;20084;-83
2021/05/08 05:22:24;;;;;;;7.63;4.60;;;;;;;3.19;100.00;101091.88;5038003;28;20040;-82
2021/05/08 05:24:51;;;;;;;7.23;3.97;;;;;;;3.29;100.00;101086.00;5038207;28;21699;-83
2021/05/08 05:27:18;;;;;;;5.43;3.77;;;;;;;3.42;100.00;101094.88;5021776;28;20489;-82
2021/05/08 05:29:45;;;;;;;7.47;3.83;;;;;;;3.49;100.00;101086.28;5003587;28;20456;-82
2021/05/08 05:32:11;;;;;;;8.43;4.20;;;;;;;3.58;100.00;101096.88;5020738;28;20417;-84
2021/05/08 05:34:37;;;;;;;7.77;3.77;;;;;;;3.58;100.00;101100.38;5034546;28;20037;-80
2021/05/08 05:37:04;;;;;;;7.43;3.77;;;;;;;3.69;100.00;101100.50;5018994;28;20136;-82
2021/05/08 05:39:30;;;;;;;7.23;4.30;;;;;;;3.79;100.00;101099.81;5012032;28;20104;-81
2021/05/08 05:41:56;;;;;;;5.20;3.03;;;;;;;3.77;100.00;101101.50;5035851;28;20064;-81
2021/05/08 05:44:22;;;;;;;7.33;3.60;;;;;;;3.83;100.00;101098.97;5044333;28;20100;-80
2021/05/08 05:46:48;;;;;;;7.43;3.60;;;;;;;3.90;100.00;101105.19;5015758;28;20044;-81
2021/05/08 05:49:15;;;;;;;6.07;3.53;;;;;;;4.09;100.00;101106.28;5004647;28;20045;-83
2021/05/08 05:51:42;;;;;;;6.47;3.40;;;;;;;4.24;100.00;101106.50;4992280;28;20065;-85
2021/05/08 05:54:08;;;;;;;7.07;3.63;;;;;;;4.47;100.00;101110.28;5003956;28;20048;-84
2021/05/08 05:56:34;;;;;;;10.47;3.93;;;;;;;4.51;99.55;101112.03;5019916;28;20049;-81
2021/05/08 05:59:00;;;;;;;4.90;3.10;;;;;;;4.60;99.22;101115.63;5005185;28;20045;-81
2021/05/08 06:01:26;;;;;;;6.13;3.57;;;;;;;5.29;97.99;101115.44;4995577;28;20042;-81
2021/05/08 06:03:53;;;;;;;7.83;4.37;;;;;;;5.96;91.34;101120.28;5019215;28;20136;-83
2021/05/08 06:06:19;;;;;;;5.83;3.90;;;;;;;5.95;91.15;101117.69;5009950;28;20096;-84
2021/05/08 06:08:45;;;;;;;5.97;4.10;;;;;;;5.92;91.09;101126.41;5050912;28;20143;-82
2021/05/08 06:11:11;;;;;;;6.83;6.23;;;;;;;5.96;91.31;101119.41;4995666;28;20037;-84
2021/05/08 06:13:37;;;;;;;6.90;4.50;;;;;;;6.06;91.80;101121.25;5004723;28;20048;-85
2021/05/08 06:16:06;;;;;;;6.30;3.97;;;;;;;6.69;89.57;101131.13;5019197;28;20033;-83
2021/05/08 06:18:36;;;;;;;5.47;4.33;;;;;;;8.07;82.88;101128.50;5001142;28;20136;-84
2021/05/08 06:21:06;;;;;;;7.80;3.47;;;;;;;8.75;74.84;101116.84;5035586;28;20071;-84
2021/05/08 06:23:32;;;;;;;5.50;3.40;;;;;;;10.16;72.95;101124.41;5003169;28;20045;-85
2021/05/08 06:25:58;;;;;;;6.00;3.50;;;;;;;10.82;65.67;101118.34;5016777;28;20045;-84
2021/05/08 06:28:24;;;;;;;4.38;2.63;;;;;;;11.22;68.21;101121.25;4999824;28;20049;-84
2021/05/08 06:30:54;;;;;;;5.85;2.60;;;;;;;11.43;67.00;101120.03;4992028;28;20053;-85
2021/05/08 06:33:22;;;;;;;4.72;2.95;;;;;;;11.52;66.90;101126.06;5021377;28;20048;-84
2021/05/08 06:35:49;;;;;;;8.13;3.53;;;;;;;11.10;67.97;101127.63;4999707;28;20120;-84
2021/05/08 06:38:15;;;;;;;10.85;4.18;;;;;;;10.48;66.29;101126.72;5009406;28;20729;-85
2021/05/08 06:40:41;;;;;;;4.45;2.60;;;;;;;10.56;70.22;101135.41;5014715;28;20045;-81
2021/05/08 06:43:08;;;;;;;5.68;3.30;;;;;;;10.27;70.80;101135.78;5014265;28;20041;-82
2021/05/08 06:45:34;;;;;;;6.65;2.65;;;;;;;10.19;71.79;101134.97;5018036;28;20037;-84
2021/05/08 06:48:00;;;;;;;10.23;4.10;;;;;;;10.03;70.78;101141.31;4999964;28;20041;-85
2021/05/08 06:50:27;;;;;;;9.60;3.05;;;;;;;9.68;70.03;101136.38;5021864;28;20103;-85
2021/05/08 06:52:54;;;;;;;10.52;3.17;;;;;;;9.64;71.69;101142.56;5001311;28;20059;-84
2021/05/08 06:55:20;;;;;;;10.05;3.83;;;;;;;9.72;73.55;101143.34;5001023;28;20042;-82
2021/05/08 06:57:48;;;;;;;7.82;3.53;;;;;;;9.61;69.75;101148.75;5016765;28;20053;-81
2021/05/08 07:00:18;;;;;;;5.30;3.40;;;;;;;9.57;73.46;101149.63;5018941;28;20046;-82
2021/05/08 07:02:44;;;;;;;11.15;3.50;;;;;;;9.70;73.43;101138.09;5003613;28;20045;-81
2021/05/08 07:05:11;;;;;;;6.57;2.80;;;;;;;9.74;73.43;101150.38;5001960;28;20144;-83
2021/05/08 07:07:37;;;;;;;6.88;3.85;;;;;;;9.88;74.11;101145.84;5001147;28;20036;-82
2021/05/08 07:10:06;;;;;;;8.48;2.90;;;;;;;10.07;69.94;101143.00;5017924;28;20126;-84
2021/05/08 07:12:32;;;;;;;7.70;3.38;;;;;;;10.33;69.06;101138.34;5018623;28;20045;-83
2021/05/08 07:14:59;;;;;;;8.90;3.00;;;;;;;10.59;71.34;101143.28;5016926;28;20067;-84
2021/05/08 07:17:25;;;;;;;5.65;2.83;;;;;;;10.55;70.64;101138.97;5001165;28;20514;-85
2021/05/08 07:19:53;;;;;;;7.65;2.72;;;;;;;10.61;65.93;101138.88;5019142;28;20041;-83
2021/05/08 07:22:19;;;;;;;10.75;3.55;;;;;;;10.51;67.80;101142.53;5002800;28;20033;-82
2021/05/08 07:24:46;;;;;;;8.68;3.88;;;;;;;10.29;66.58;101141.03;5006018;28;20053;-83
2021/05/08 07:27:12;;;;;;;8.45;3.45;;;;;;;10.30;67.80;101138.38;5021564;28;20483;-84
2021/05/08 07:29:38;;;;;;;6.40;2.92;;;;;;;9.92;66.83;101140.50;5018644;28;20041;-84
2021/05/08 07:32:05;;;;;;;5.22;2.90;;;;;;;10.13;70.19;101148.22;5019500;28;20163;-82
2021/05/08 07:34:32;;;;;;;7.28;3.25;;;;;;;10.06;67.06;101149.19;5004223;28;20037;-84
2021/05/08 07:36:58;;;;;;;8.20;3.10;;;;;;;9.89;66.07;101149.34;5003354;28;20040;-83
2021/05/08 07:39:24;;;;;;;9.27;3.25;;;;;;;9.99;67.08;101147.50;5003299;28;20132;-84
2021/05/08 07:41:50;;;;;;;6.07;2.53;;;;;;;10.15;67.72;101142.03;5021978;28;20105;-83
2021/05/08 07:44:17;;;;;;;6.68;2.80;;;;;;;10.60;65.84;101149.47;5021724;28;20041;-85
2021/05/08 07:46:43;;;;;;;3.50;2.25;;;;;;;11.06;65.96;101141.78;5004821;28;20048;-82
2021/05/08 07:49:10;;;;;;;5.28;2.67;;;;;;;11.45;64.70;101147.38;5016078;28;20045;-83
2021/05/08 07:51:36;;;;;;;9.32;2.88;;;;;;;11.73;62.16;101148.63;4994279;28;20063;-84
2021/05/08 07:54:04;;;;;;;4.30;2.63;;;;;;;11.78;60.79;101152.09;4998712;28;20145;-84
2021/05/08 07:56:35;;;;;;;5.97;2.30;;;;;;;11.98;63.07;101148.22;5003245;28;20103;-83
2021/05/08 07:59:02;;;;;;;6.25;2.53;;;;;;;11.83;59.46;101152.03;5001488;28;20044;-84
2021/05/08 08:01:28;;;;;;;4.63;2.10;;;;;;;11.40;61.24;101155.34;5004258;28;20067;-82
2021/05/08 08:03:55;;;;;;;5.55;2.42;;;;;;;11.20;58.99;101152.16;5019404;28;20763;-83
2021/05/08 08:06:24;;;;;;;7.00;2.45;;;;;;;10.98;61.63;101159.53;5005215;28;20045;-83
2021/05/08 08:08:50;;;;;;;4.82;2.60;;;;;;;10.78;62.33;101151.00;5009101;28;20052;-82
2021/05/08 08:11:16;;;;;;;7.22;2.88;;;;;;;10.53;62.03;101161.00;5003763;28;20041;-83
2021/05/08 08:13:42;;;;;;;9.18;2.80;;;;;;;10.18;64.42;101161.41;5003699;28;20760;-84
2021/05/08 08:16:09;;;;;;;6.70;2.70;;;;;;;10.21;65.78;101164.00;5003625;28;20502;-82
2021/05/08 08:18:35;;;;;;;4.05;2.20;;;;;;;10.56;67.24;101167.13;5000880;28;20048;-86
2021/05/08 08:21:03;;;;;;;3.85;2.55;;;;;;;11.06;66.29;101159.41;4993283;28;20064;-86
2021/05/08 08:23:30;;;;;;;6.10;2.83;;;;;;;11.32;59.25;101151.97;5008906;28;20041;-84
2021/05/08 08:25:56;;;;;;;4.07;2.53;;;;;;;11.21;61.33;101156.56;4989979;28;20192;-83
2021/05/08 08:28:22;;;;;;;4.65;2.50;;;;;;;11.18;61.20;101165.41;4998192;28;20049;-83
2021/05/08 08:30:48;;;;;;;9.95;2.45;;;;;;;11.25;62.59;101163.53;5001556;28;20051;-82
2021/05/08 08:33:15;;;;;;;6.50;2.50;;;;;;;11.28;61.02;101156.44;5001978;28;20037;-84
2021/05/08 08:35:41;;;;;;;3.03;2.10;;;;;;;11.65;60.66;101163.75;5001755;28;20048;-84
2021/05/08 08:38:08;;;;;;;5.80;2.42;;;;;;;11.51;61.44;101163.13;5023586;28;20092;-84
2021/05/08 08:40:35;;;;;;;6.35;2.55;;;;;;;11.45;57.65;101165.88;5014528;28;20733;-83
2021/05/08 08:43:02;;;;;;;4.72;2.22;;;;;;;11.82;56.39;101159.09;5019625;28;20044;-84
2021/05/08 08:45:32;;;;;;;4.75;2.30;;;;;;;12.25;58.92;101170.66;5039826;28;20041;-83
2021/05/08 08:48:02;;;;;;;8.02;2.40;;;;;;;12.72;53.34;101168.84;5003285;28;20757;-84
2021/05/08 08:50:30;;;;;;;5.38;2.10;;;;;;;12.44;49.13;101176.47;5034984;28;20140;-84
2021/05/08 08:53:00;;;;;;;5.97;2.72;;;;;;;13.02;56.90;101161.97;5013958;28;20036;-85
2021/05/08 08:55:26;;;;;;;5.18;2.17;;;;;;;13.24;50.96;101166.81;5018120;28;20052;-84
2021/05/08 08:57:54;;;;;;;4.22;2.20;;;;;;;13.23;51.79;101167.72;5018357;28;20048;-84
2021/05/08 09:00:20;;;;;;;3.53;1.90;;;;;;;13.04;53.87;101168.16;5016164;28;20119;-82
2021/05/08 09:02:48;;;;;;;3.67;1.83;;;;;;;12.79;51.77;101166.03;5011571;28;21596;-83
2021/05/08 09:05:17;;;;;;;5.18;1.90;;;;;;;12.50;51.83;101171.06;5017066;28;20045;-85
2021/05/08 09:07:45;;;;;;;7.63;1.83;;;;;;;12.54;53.13;101165.69;5010946;28;20041;-84
2021/05/08 09:10:22;;;;;;;4.85;2.05;;;;;;;12.84;55.40;101160.63;5003291;28;20045;-84
2021/05/08 09:12:49;;;;;;;4.18;2.60;;;;;;;12.75;51.73;101160.81;5028002;28;20041;-85
2021/05/08 09:15:35;;;;;;;3.60;1.90;;;;;;;12.55;52.19;101169.19;5034047;28;20051;-85
2021/05/08 09:18:02;;;;;;;4.82;1.95;;;;;;;12.25;52.83;101168.88;5014723;28;20079;-84
2021/05/08 09:20:46;;;;;;;5.13;2.05;;;;;;;12.42;54.98;101165.91;5015640;28;20069;-85
2021/05/08 09:23:25;;;;;;;5.28;2.00;;;;;;;12.65;50.07;101163.66;4997686;28;20033;-83
2021/05/08 09:25:57;;;;;;;4.07;1.70;;;;;;;12.42;47.36;101154.44;5017096;28;20053;-85
2021/05/08 09:28:26;;;;;;;3.28;1.90;;;;;;;12.87;52.39;101156.13;5015506;28;20037;-83
2021/05/08 09:30:53;;;;;;;2.38;1.85;;;;;;;12.88;51.47;101157.00;5028472;28;20068;-83
2021/05/08 09:33:21;;;;;;;6.43;2.35;;;;;;;12.75;53.03;101153.72;4993075;28;20033;-84
2021/05/08 09:36:10;;;;;;;6.13;2.65;;;;;;;12.78;53.83;101161.66;5037582;28;20055;-82
2021/05/08 09:38:39;;;;;;;5.78;2.53;;;;;;;13.09;50.60;101153.84;4998374;28;20219;-82
2021/05/08 09:41:10;;;;;;;4.43;2.40;;;;;;;13.50;52.62;101165.31;5014047;28;20041;-84
2021/05/08 09:43:37;;;;;;;5.68;2.00;;;;;;;13.49;47.19;101158.25;5015293;28;20501;-83
2021/05/08 09:46:08;;;;;;;6.30;2.35;;;;;;;13.72;49.51;101147.06;5012946;28;20040;-84
2021/05/08 09:48:36;;;;;;;5.35;1.80;;;;;;;13.24;45.21;101161.50;5000177;28;20044;-83
2021/05/08 09:51:23;;;;;;;2.85;1.85;;;;;;;12.81;48.24;101163.34;5014766;28;20047;-84
2021/05/08 09:54:11;;;;;;;6.10;2.80;;;;;;;12.47;51.58;101168.47;5099265;23;20052;-81
2021/05/08 09:56:45;;;;;;;4.13;2.03;;;;;;;12.33;52.83;101168.75;5021655;28;20049;-80
2021/05/08 09:59:31;;;;;;;4.32;2.92;;;;;;;12.59;51.14;101157.63;5042161;28;20044;-81
2021/05/08 10:02:03;;;;;;;3.13;1.80;;;;;;;12.97;50.84;101164.75;5012333;28;20049;-83
2021/05/08 10:04:42;;;;;;;4.65;2.03;;;;;;;13.10;48.90;101155.59;5015263;28;20055;-82
2021/05/08 10:07:22;;;;;;;5.90;1.70;;;;;;;13.23;48.82;101142.97;5015173;28;20537;-82
2021/05/08 10:09:57;;;;;;;2.65;1.85;;;;;;;13.15;48.08;101144.91;5018528;28;20049;-80
2021/05/08 10:12:28;;;;;;;4.97;1.90;;;;;;;12.99;48.19;101140.84;5012534;28;20034;-81
2021/05/08 10:14:56;;;;;;;5.88;2.25;;;;;;;12.84;47.84;101140.28;5000534;28;20794;-80
2021/05/08 10:17:27;;;;;;;4.15;2.28;;;;;;;12.87;47.11;101140.22;5028932;28;20037;-80
2021/05/08 10:20:07;;;;;;;27.87;21.53;;;;;;;12.96;44.34;101136.50;4995189;28;20067;-79
2021/05/08 10:22:34;;;;;;;5.00;2.20;;;;;;;13.30;46.77;101136.63;5010437;28;20361;-81
2021/05/08 10:25:05;;;;;;;3.83;1.60;;;;;;;13.84;50.46;101145.88;5027561;28;20052;-81
2021/05/08 10:27:31;;;;;;;1.85;1.55;;;;;;;14.13;48.82;101130.03;5024273;28;20037;-82
2021/05/08 10:29:58;;;;;;;2.55;1.73;;;;;;;14.46;46.82;101133.56;5011319;28;20041;-79
2021/05/08 10:32:25;;;;;;;4.50;3.45;;;;;;;14.54;43.10;101128.00;5011078;28;20524;-78
2021/05/08 10:34:59;;;;;;;4.30;2.50;;;;;;;15.01;46.56;101131.88;5016787;28;20056;-80
2021/05/08 10:37:26;;;;;;;25.60;18.55;;;;;;;15.16;44.44;101126.09;5047158;28;20406;-80
2021/05/08 10:40:00;;;;;;;20.10;18.10;;;;;;;15.44;44.34;101126.03;5003519;28;20408;-80
2021/05/08 10:42:33;;;;;;;38.78;28.02;;;;;;;15.64;42.69;101105.91;5052375;28;20107;-78
2021/05/08 10:45:03;;;;;;;3.40;2.08;;;;;;;15.77;39.57;101118.75;5014080;28;20045;-78
2021/05/08 10:48:03;;;;;;;14.40;13.20;;;;;;;15.90;39.26;101134.31;5062671;28;20041;-79
2021/05/08 10:50:36;;;;;;;10.40;6.90;;;;;;;15.98;42.70;101132.25;5030757;28;20521;-80
2021/05/08 10:53:04;;;;;;;2.75;1.85;;;;;;;16.17;39.51;101124.47;5045104;28;20051;-80
2021/05/08 10:55:41;;;;;;;2.50;2.30;;;;;;;15.80;37.08;101119.56;5010528;28;20067;-80
2021/05/08 10:58:14;;;;;;;3.03;1.90;;;;;;;15.86;39.10;101122.00;4992608;28;20033;-79
2021/05/08 11:00:44;;;;;;;3.60;2.00;;;;;;;15.73;39.72;101124.25;5013845;28;20103;-79
2021/05/08 11:03:11;;;;;;;2.55;1.60;;;;;;;15.61;39.71;101129.97;5026958;28;20043;-80
2021/05/08 11:05:49;;;;;;;3.30;1.60;;;;;;;15.28;41.78;101135.47;5023193;28;20037;-77
2021/05/08 11:08:24;;;;;;;5.13;1.73;;;;;;;15.03;39.83;101131.84;5009260;28;20071;-77
2021/05/08 11:11:02;;;;;;;2.33;1.58;;;;;;;15.25;42.40;101127.59;5025774;28;20131;-82
2021/05/08 11:13:44;;;;;;;3.28;1.65;;;;;;;14.85;40.59;101125.28;5018017;28;20591;-78
2021/05/08 11:16:18;;;;;;;3.65;1.50;;;;;;;14.72;42.80;101124.81;5025662;28;20052;-79
2021/05/08 11:18:45;;;;;;;;;;;;;;;14.53;42.54;101119.16;5013041;28;20048;-79
2021/05/08 11:21:15;;;;;;;3.05;1.60;;;;;;;14.45;45.51;101122.91;5044654;28;20365;-78
2021/05/08 11:23:49;;;;;;;3.90;1.65;;;;;;;14.19;41.82;101124.53;5048790;28;20043;-78
2021/05/08 11:26:39;;;;;;;3.63;1.40;;;;;;;13.73;44.72;101117.81;5018102;28;20436;-78
2021/05/08 11:29:11;;;;;;;3.03;1.40;;;;;;;13.44;44.05;101120.34;5010848;28;20033;-78